createdAt,value
2018-01-15T00:00:53.565Z,101716.39
2018-01-15T00:03:20.153Z,101716.13
2018-01-15T00:05:46.738Z,101717.30
2018-01-15T00:08:13.331Z,101710.94
2018-01-15T00:10:39.973Z,101707.64
2018-01-15T00:13:06.565Z,101706.08
2018-01-15T00:15:33.144Z,101702.31
2018-01-15T00:17:59.712Z,101697.61
2018-01-15T00:20:26.329Z,101692.12
2018-01-15T00:22:52.928Z,101688.25
2018-01-15T00:25:19.596Z,101685.25
2018-01-15T00:27:46.192Z,101681.45
2018-01-15T00:30:13.655Z,101679.39
2018-01-15T00:32:41.076Z,101671.46
2018-01-15T00:35:07.828Z,101670.03
2018-01-15T00:37:34.436Z,101661.23
2018-01-15T00:40:01.211Z,101654.34
2018-01-15T00:42:27.969Z,101656.97
2018-01-15T00:44:55.101Z,101660.40
2018-01-15T00:47:21.862Z,101643.55
2018-01-15T00:49:48.604Z,101633.92
2018-01-15T00:52:15.357Z,101624.96
2018-01-15T00:54:41.968Z,101627.46
2018-01-15T00:57:08.670Z,101620.06
2018-01-15T00:59:35.243Z,101622.33
2018-01-15T01:02:02.494Z,101618.09
2018-01-15T01:04:29.146Z,101614.77
2018-01-15T01:06:55.924Z,101613.56
2018-01-15T01:09:22.838Z,101605.73
2018-01-15T01:11:49.587Z,101601.84
2018-01-15T01:14:16.268Z,101614.95
2018-01-15T01:16:43.107Z,101608.09
2018-01-15T01:19:09.779Z,101607.75
2018-01-15T01:21:36.624Z,101602.89
2018-01-15T01:24:03.241Z,101604.91
2018-01-15T01:26:29.850Z,101605.27
2018-01-15T01:28:56.437Z,101604.27
2018-01-15T01:31:23.104Z,101598.64
2018-01-15T01:33:49.764Z,101593.31
2018-01-15T01:36:17.164Z,101595.80
2018-01-15T01:38:43.739Z,101589.54
2018-01-15T01:41:10.387Z,101583.98
2018-01-15T01:43:36.960Z,101583.48
2018-01-15T01:46:04.379Z,101574.25
2018-01-15T01:48:30.961Z,101577.04
2018-01-15T01:50:58.462Z,101578.13
2018-01-15T01:53:25.060Z,101577.00
2018-01-15T01:55:52.420Z,101571.80
2018-01-15T01:58:19.751Z,101567.88
2018-01-15T02:00:46.436Z,101557.59
2018-01-15T02:03:13.080Z,101553.80
2018-01-15T02:05:39.726Z,101552.47
2018-01-15T02:08:06.311Z,101553.48
2018-01-15T02:10:32.899Z,101555.02
2018-01-15T02:13:00.237Z,101544.44
2018-01-15T02:15:26.842Z,101537.42
2018-01-15T02:17:53.501Z,101527.91
2018-01-15T02:20:20.135Z,101522.68
2018-01-15T02:22:46.748Z,101522.74
2018-01-15T02:25:13.348Z,101512.67
2018-01-15T02:27:40.042Z,101517.75
2018-01-15T02:30:06.685Z,101508.50
2018-01-15T02:32:33.364Z,101497.50
2018-01-15T02:35:00.208Z,101497.69
2018-01-15T02:37:26.943Z,101484.95
2018-01-15T02:39:53.701Z,101485.58
2018-01-15T02:42:20.508Z,101479.72
2018-01-15T02:44:47.236Z,101483.58
2018-01-15T02:47:14.668Z,101478.45
2018-01-15T02:49:41.506Z,101475.03
2018-01-15T02:52:08.344Z,101469.77
2018-01-15T02:54:35.080Z,101460.66
2018-01-15T02:57:01.731Z,101462.39
2018-01-15T02:59:28.382Z,101458.00
2018-01-15T03:01:55.234Z,101452.52
2018-01-15T03:04:21.980Z,101459.22
2018-01-15T03:06:48.823Z,101454.50
2018-01-15T03:09:15.559Z,101453.73
2018-01-15T03:11:42.158Z,101450.77
2018-01-15T03:14:09.667Z,101450.03
2018-01-15T03:16:36.410Z,101447.25
2018-01-15T03:19:03.030Z,101442.69
2018-01-15T03:21:29.796Z,101442.25
2018-01-15T03:23:56.546Z,101445.88
2018-01-15T03:26:23.305Z,101438.09
2018-01-15T03:28:50.205Z,101433.80
2018-01-15T03:31:16.885Z,101437.96
2018-01-15T03:33:43.731Z,101431.70
2018-01-15T03:36:10.325Z,101431.70
2018-01-15T03:38:37.805Z,101428.88
2018-01-15T03:41:04.381Z,101424.33
2018-01-15T03:43:31.088Z,101428.38
2018-01-15T03:45:57.675Z,101426.28
2018-01-15T03:48:24.431Z,101419.09
2018-01-15T03:50:51.245Z,101414.64
2018-01-15T03:53:17.825Z,101414.40
2018-01-15T03:55:44.488Z,101404.60
2018-01-15T03:58:11.892Z,101403.09
2018-01-15T04:00:38.560Z,101400.88
2018-01-15T04:03:05.192Z,101385.23
2018-01-15T04:05:31.943Z,101381.38
2018-01-15T04:07:58.652Z,101371.34
2018-01-15T04:10:25.428Z,101358.61
2018-01-15T04:12:52.087Z,101350.20
2018-01-15T04:15:18.802Z,101347.61
2018-01-15T04:17:45.497Z,101341.23
2018-01-15T04:20:12.343Z,101341.23
2018-01-15T04:22:39.163Z,101329.44
2018-01-15T04:25:05.906Z,101326.78
2018-01-15T04:27:32.646Z,101321.97
2018-01-15T04:29:59.300Z,101312.43
2018-01-15T04:32:26.054Z,101309.31
2018-01-15T04:34:52.818Z,101294.92
2018-01-15T04:37:19.633Z,101300.61
2018-01-15T04:39:46.236Z,101298.61
2018-01-15T04:42:12.839Z,101294.92
2018-01-15T04:44:39.437Z,101281.11
2018-01-15T04:47:06.020Z,101286.25
2018-01-15T04:49:32.619Z,101283.53
2018-01-15T04:51:59.206Z,101282.16
2018-01-15T04:54:25.951Z,101283.80
2018-01-15T04:56:52.543Z,101276.98
2018-01-15T04:59:19.223Z,101271.77
2018-01-15T05:01:45.980Z,101269.97
2018-01-15T05:04:12.616Z,101268.11
2018-01-15T05:06:39.356Z,101252.97
2018-01-15T05:09:06.163Z,101243.23
2018-01-15T05:11:32.908Z,101233.11
2018-01-15T05:14:00.402Z,101239.52
2018-01-15T05:16:27.168Z,101234.80
2018-01-15T05:18:54.116Z,101233.97
2018-01-15T05:21:20.861Z,101237.33
2018-01-15T05:23:47.692Z,101228.11
2018-01-15T05:26:14.349Z,101229.95
2018-01-15T05:28:41.100Z,101226.87
2018-01-15T05:31:07.752Z,101217.25
2018-01-15T05:33:34.488Z,101221.60
2018-01-15T05:36:01.202Z,101224.92
2018-01-15T05:38:28.697Z,101221.38
2018-01-15T05:40:55.444Z,101218.83
2018-01-15T05:43:22.392Z,101221.65
2018-01-15T05:45:49.240Z,101220.06
2018-01-15T05:48:15.874Z,101217.66
2018-01-15T05:50:42.533Z,101225.72
2018-01-15T05:53:09.191Z,101209.24
2018-01-15T05:55:35.812Z,101213.36
2018-01-15T05:58:02.549Z,101206.30
2018-01-15T06:00:29.305Z,101195.30
2018-01-15T06:02:55.938Z,101193.70
2018-01-15T06:05:22.588Z,101185.66
2018-01-15T06:07:49.333Z,101190.16
2018-01-15T06:10:16.087Z,101183.31
2018-01-15T06:12:42.929Z,101177.59
2018-01-15T06:15:09.772Z,101177.80
2018-01-15T06:17:36.524Z,101171.47
2018-01-15T06:20:03.274Z,101158.36
2018-01-15T06:22:29.921Z,101157.00
2018-01-15T06:24:56.568Z,101148.42
2018-01-15T06:27:23.307Z,101159.56
2018-01-15T06:29:50.051Z,101146.18
2018-01-15T06:32:16.689Z,101138.72
2018-01-15T06:34:43.340Z,101138.36
2018-01-15T06:37:10.136Z,101135.44
2018-01-15T06:39:37.479Z,101136.39
2018-01-15T06:42:04.283Z,101128.40
2018-01-15T06:44:31.050Z,101112.12
2018-01-15T06:46:57.885Z,101093.28
2018-01-15T06:49:24.697Z,101094.59
2018-01-15T06:51:51.311Z,101092.59
2018-01-15T06:54:18.736Z,101098.34
2018-01-15T06:56:45.378Z,101091.05
2018-01-15T06:59:12.156Z,101083.90
2018-01-15T07:01:38.824Z,101084.27
2018-01-15T07:04:06.239Z,101081.53
2018-01-15T07:06:32.823Z,101085.09
2018-01-15T07:09:00.232Z,101082.43
2018-01-15T07:11:27.306Z,101075.52
2018-01-15T07:13:54.181Z,101077.60
2018-01-15T07:16:21.797Z,101076.88
2018-01-15T07:18:48.560Z,101067.93
2018-01-15T07:21:15.175Z,101060.09
2018-01-15T07:23:41.867Z,101062.56
2018-01-15T07:26:08.697Z,101059.76
2018-01-15T07:28:35.411Z,101060.24
2018-01-15T07:31:02.093Z,101057.02
2018-01-15T07:36:55.069Z,101049.11
2018-01-15T07:39:21.709Z,101044.66
2018-01-15T07:41:49.240Z,101038.30
2018-01-15T07:44:15.990Z,101034.91
2018-01-15T07:46:42.650Z,101033.39
2018-01-15T07:49:09.379Z,101027.63
2018-01-15T07:51:36.041Z,101028.05
2018-01-15T07:54:02.873Z,101032.69
2018-01-15T07:56:29.612Z,101017.09
2018-01-15T07:58:56.351Z,101013.02
2018-01-15T08:01:23.115Z,101013.05
2018-01-15T08:03:49.817Z,101009.45
2018-01-15T08:06:16.628Z,101002.39
2018-01-15T08:08:43.448Z,101001.88
2018-01-15T08:11:10.196Z,101000.09
2018-01-15T08:13:36.844Z,100985.97
2018-01-15T08:16:03.891Z,100972.30
2018-01-15T08:18:30.631Z,100965.80
2018-01-15T08:20:57.388Z,100956.28
2018-01-15T08:23:24.120Z,100950.97
2018-01-15T08:25:50.875Z,100941.45
2018-01-15T08:28:17.618Z,100927.09
2018-01-15T08:30:44.269Z,100920.52
2018-01-15T08:33:11.002Z,100913.48
2018-01-15T08:35:37.655Z,100903.66
2018-01-15T08:38:04.297Z,100895.06
2018-01-15T08:40:30.952Z,100893.63
2018-01-15T08:42:57.608Z,100892.64
2018-01-15T08:45:24.423Z,100885.46
2018-01-15T08:47:51.073Z,100877.42
2018-01-15T08:50:17.928Z,100869.23
2018-01-15T08:52:44.561Z,100861.91
2018-01-15T08:55:11.207Z,100839.70
2018-01-15T08:57:37.961Z,100845.45
2018-01-15T09:00:04.598Z,100830.08
2018-01-15T09:02:31.217Z,100839.30
2018-01-15T09:04:57.925Z,100823.41
2018-01-15T09:07:25.455Z,100819.91
2018-01-15T09:09:52.198Z,100812.77
2018-01-15T09:12:18.944Z,100802.78
2018-01-15T09:14:45.584Z,100801.67
2018-01-15T09:17:12.229Z,100814.30
2018-01-15T09:19:38.976Z,100809.35
2018-01-15T09:22:05.616Z,100802.13
2018-01-15T09:24:32.364Z,100773.81
2018-01-15T09:26:59.115Z,100767.47
2018-01-15T09:29:25.768Z,100768.18
2018-01-15T09:31:52.447Z,100760.28
2018-01-15T09:34:20.793Z,100756.16
2018-01-15T09:36:47.429Z,100749.72
2018-01-15T09:39:14.063Z,100746.56
2018-01-15T09:41:40.812Z,100741.18
2018-01-15T09:44:07.563Z,100730.83
2018-01-15T09:46:34.210Z,100736.08
2018-01-15T09:49:00.964Z,100730.91
2018-01-15T09:51:27.788Z,100719.91
2018-01-15T09:53:54.538Z,100728.89
2018-01-15T09:56:21.210Z,100711.47
2018-01-15T09:58:47.928Z,100684.83
2018-01-15T10:01:14.691Z,100673.78
2018-01-15T10:03:41.427Z,100680.50
2018-01-15T10:06:08.164Z,100677.14
2018-01-15T10:08:35.004Z,100662.09
2018-01-15T10:11:01.775Z,100659.29
2018-01-15T10:13:28.408Z,100651.81
2018-01-15T10:15:55.151Z,100642.19
2018-01-15T10:18:21.895Z,100640.66
2018-01-15T10:20:48.539Z,100641.37
2018-01-15T10:23:15.411Z,100641.72
2018-01-15T10:25:42.948Z,100641.65
2018-01-15T10:28:09.791Z,100616.47
2018-01-15T10:30:36.641Z,100611.22
2018-01-15T10:33:03.288Z,100597.56
2018-01-15T10:35:30.008Z,100592.92
2018-01-15T10:37:56.761Z,100580.30
2018-01-15T10:40:23.435Z,100567.62
2018-01-15T10:42:50.232Z,100557.98
2018-01-15T10:45:17.044Z,100542.58
2018-01-15T10:47:43.863Z,100535.03
2018-01-15T10:50:10.829Z,100525.58
2018-01-15T10:52:37.588Z,100514.39
2018-01-15T10:55:04.928Z,100502.91
2018-01-15T10:57:31.663Z,100491.72
2018-01-15T10:59:58.409Z,100472.56
2018-01-15T11:02:25.873Z,100464.67
2018-01-15T11:04:52.734Z,100449.70
2018-01-15T11:07:19.476Z,100437.97
2018-01-15T11:09:46.123Z,100432.69
2018-01-15T11:12:12.752Z,100424.52
2018-01-15T11:14:39.410Z,100417.29
2018-01-15T11:17:06.010Z,100389.62
2018-01-15T11:19:32.799Z,100390.67
2018-01-15T11:21:59.396Z,100379.11
2018-01-15T11:24:26.100Z,100384.11
2018-01-15T11:26:52.847Z,100367.50
2018-01-15T11:29:19.534Z,100352.56
2018-01-15T11:31:46.183Z,100340.77
2018-01-15T11:34:12.948Z,100339.67
2018-01-15T11:36:39.807Z,100327.98
2018-01-15T11:39:06.544Z,100327.59
2018-01-15T11:41:33.188Z,100308.41
2018-01-15T11:43:59.769Z,100301.84
2018-01-15T11:46:27.123Z,100292.50
2018-01-15T11:48:53.778Z,100285.03
2018-01-15T11:51:21.194Z,100273.78
2018-01-15T11:53:47.950Z,100268.42
2018-01-15T11:56:14.630Z,100259.00
2018-01-15T11:58:42.157Z,100253.66
2018-01-15T12:01:08.885Z,100248.46
2018-01-15T12:03:35.535Z,100243.63
2018-01-15T12:06:02.283Z,100235.11
2018-01-15T12:08:28.931Z,100226.28
2018-01-15T12:10:55.592Z,100214.33
2018-01-15T12:13:22.420Z,100212.17
2018-01-15T12:15:49.167Z,100202.41
2018-01-15T12:18:15.907Z,100196.28
2018-01-15T12:20:42.554Z,100182.73
2018-01-15T12:23:09.264Z,100180.63
2018-01-15T12:25:36.041Z,100173.51
2018-01-15T12:28:02.709Z,100176.98
2018-01-15T12:30:29.598Z,100147.23
2018-01-15T12:32:56.416Z,100153.36
2018-01-15T12:35:23.816Z,100136.88
2018-01-15T12:37:50.591Z,100132.67
2018-01-15T12:40:17.226Z,100120.98
2018-01-15T12:42:44.088Z,100102.30
2018-01-15T12:45:10.720Z,100100.33
2018-01-15T12:47:37.472Z,100077.41
2018-01-15T12:50:04.312Z,100081.16
2018-01-15T12:52:31.030Z,100064.11
2018-01-15T12:54:57.710Z,100056.82
2018-01-15T12:57:24.461Z,100039.21
2018-01-15T12:59:51.193Z,100040.30
2018-01-15T13:02:17.948Z,100018.55
2018-01-15T13:04:44.687Z,100012.38
2018-01-15T13:07:30.056Z,100011.56
2018-01-15T13:09:56.825Z,99994.18
2018-01-15T13:12:23.559Z,99987.37
2018-01-15T13:14:50.176Z,99972.27
2018-01-15T13:17:16.836Z,99955.56
2018-01-15T13:19:43.551Z,99944.10
2018-01-15T13:22:10.546Z,99938.78
2018-01-15T13:24:37.148Z,99926.06
2018-01-15T13:27:03.828Z,99922.75
2018-01-15T13:29:30.569Z,99915.04
2018-01-15T13:31:57.256Z,99914.02
2018-01-15T13:34:24.800Z,99896.73
2018-01-15T13:36:51.524Z,99892.91
2018-01-15T13:39:18.286Z,99879.23
2018-01-15T13:41:45.017Z,99888.84
2018-01-15T13:44:11.658Z,99864.44
2018-01-15T13:46:38.284Z,99881.47
2018-01-15T13:49:04.948Z,99859.68
2018-01-15T13:51:31.606Z,99844.23
2018-01-15T13:53:58.241Z,99831.28
2018-01-15T13:56:24.889Z,99840.98
2018-01-15T13:58:51.625Z,99842.56
2018-01-15T14:01:18.466Z,99825.80
2018-01-15T14:03:45.149Z,99829.95
2018-01-15T14:06:12.529Z,99825.11
2018-01-15T14:08:39.316Z,99805.77
2018-01-15T14:11:05.984Z,99796.20
2018-01-15T14:13:32.617Z,99779.73
2018-01-15T14:15:59.657Z,99766.61
2018-01-15T14:18:26.372Z,99761.98
2018-01-15T14:20:53.016Z,99758.24
2018-01-15T14:23:19.611Z,99760.91
2018-01-15T14:25:46.248Z,99751.59
2018-01-15T14:28:12.847Z,99740.61
2018-01-15T14:30:39.523Z,99744.17
2018-01-15T14:33:06.122Z,99746.66
2018-01-15T14:35:32.813Z,99727.41
2018-01-15T14:37:59.453Z,99714.28
2018-01-15T14:40:26.035Z,99699.48
2018-01-15T14:42:53.553Z,99693.31
2018-01-15T14:45:20.176Z,99692.41
2018-01-15T14:47:46.860Z,99679.55
2018-01-15T14:50:13.689Z,99684.11
2018-01-15T14:52:40.746Z,99671.33
2018-01-15T14:55:07.489Z,99655.02
2018-01-15T14:57:34.345Z,99659.86
2018-01-15T15:00:01.183Z,99646.96
2018-01-15T15:02:28.045Z,99644.64
2018-01-15T15:04:54.892Z,99631.68
2018-01-15T15:07:21.737Z,99616.30
2018-01-15T15:09:55.576Z,99619.13
2018-01-15T15:12:22.323Z,99625.44
2018-01-15T15:14:49.130Z,99613.38
2018-01-15T15:17:15.944Z,99612.57
2018-01-15T15:19:42.525Z,99599.02
2018-01-15T15:22:09.186Z,99601.58
2018-01-15T15:24:35.777Z,99589.95
2018-01-15T15:27:02.376Z,99557.16
2018-01-15T15:29:29.208Z,99577.93
2018-01-15T15:31:55.847Z,99578.91
2018-01-15T15:34:22.592Z,99579.67
2018-01-15T15:36:49.438Z,99553.65
2018-01-15T15:39:16.399Z,99548.17
2018-01-15T15:41:43.136Z,99532.94
2018-01-15T15:44:10.035Z,99528.95
2018-01-15T15:46:37.685Z,99516.41
2018-01-15T15:49:04.829Z,99502.54
2018-01-15T15:51:31.850Z,99487.58
2018-01-15T15:53:58.705Z,99492.00
2018-01-15T15:56:25.559Z,99482.66
2018-01-15T15:58:52.233Z,99485.55
2018-01-15T16:01:19.044Z,99475.33
2018-01-15T16:03:45.786Z,99462.30
2018-01-15T16:06:12.636Z,99447.50
2018-01-15T16:08:39.294Z,99442.09
2018-01-15T16:11:06.032Z,99426.15
2018-01-15T16:13:32.627Z,99425.60
2018-01-15T16:15:59.282Z,99417.95
2018-01-15T16:18:25.893Z,99410.64
2018-01-15T16:20:53.256Z,99401.44
2018-01-15T16:23:20.709Z,99394.36
2018-01-15T16:25:48.221Z,99395.34
2018-01-15T16:28:15.004Z,99390.42
2018-01-15T16:30:41.658Z,99376.84
2018-01-15T16:33:09.028Z,99374.64
2018-01-15T16:35:36.581Z,99354.13
2018-01-15T16:38:03.156Z,99352.34
2018-01-15T16:40:30.640Z,99333.84
2018-01-15T16:42:57.365Z,99313.77
2018-01-15T16:45:24.047Z,99319.23
2018-01-15T16:47:50.804Z,99318.62
2018-01-15T16:50:23.889Z,99315.20
2018-01-15T16:52:50.625Z,99310.75
2018-01-15T16:55:17.291Z,99308.81
2018-01-15T16:57:44.130Z,99305.36
2018-01-15T17:00:10.795Z,99286.91
2018-01-15T17:02:37.564Z,99291.34
2018-01-15T17:05:05.074Z,99300.00
2018-01-15T17:07:31.831Z,99280.33
2018-01-15T17:09:58.881Z,99276.67
2018-01-15T17:12:25.633Z,99286.52
2018-01-15T17:14:52.472Z,99279.94
2018-01-15T17:17:19.421Z,99263.46
2018-01-15T17:19:46.065Z,99262.86
2018-01-15T17:22:12.892Z,99260.38
2018-01-15T17:24:39.573Z,99255.39
2018-01-15T17:27:06.203Z,99240.25
2018-01-15T17:29:32.945Z,99231.09
2018-01-15T17:31:59.687Z,99227.11
2018-01-15T17:34:26.382Z,99216.01
2018-01-15T17:36:53.927Z,99198.05
2018-01-15T17:39:20.580Z,99201.05
2018-01-15T17:41:48.104Z,99187.00
2018-01-15T17:44:14.770Z,99183.48
2018-01-15T17:46:41.613Z,99188.28
2018-01-15T17:49:08.345Z,99195.50
2018-01-15T17:51:35.121Z,99193.16
2018-01-15T17:54:01.870Z,99195.83
2018-01-15T17:56:29.300Z,99180.03
2018-01-15T17:58:56.057Z,99176.69
2018-01-15T18:01:22.704Z,99173.94
2018-01-15T18:03:49.296Z,99170.42
2018-01-15T18:06:15.988Z,99172.52
2018-01-15T18:08:42.611Z,99170.27
2018-01-15T18:11:09.280Z,99173.27
2018-01-15T18:13:36.640Z,99179.20
2018-01-15T18:16:03.387Z,99163.20
2018-01-15T18:18:29.991Z,99163.24
2018-01-15T18:20:56.894Z,99161.36
2018-01-15T18:23:24.429Z,99162.63
2018-01-15T18:25:51.066Z,99174.70
2018-01-15T18:28:17.685Z,99177.83
2018-01-15T18:30:44.288Z,99177.41
2018-01-15T18:33:11.924Z,99159.59
2018-01-15T18:35:38.523Z,99163.77
2018-01-15T18:38:05.308Z,99157.80
2018-01-15T18:40:32.152Z,99163.41
2018-01-15T18:42:58.796Z,99161.55
2018-01-15T18:45:25.467Z,99182.06
2018-01-15T18:47:52.292Z,99166.55
2018-01-15T18:50:18.963Z,99173.38
2018-01-15T18:52:45.870Z,99165.11
2018-01-15T18:55:12.539Z,99155.75
2018-01-15T18:57:39.176Z,99159.51
2018-01-15T19:00:06.040Z,99171.19
2018-01-15T19:02:32.864Z,99178.52
2018-01-15T19:04:59.534Z,99178.50
2018-01-15T19:07:27.227Z,99181.06
2018-01-15T19:09:54.665Z,99179.83
2018-01-15T19:12:21.594Z,99179.31
2018-01-15T19:14:48.342Z,99173.66
2018-01-15T19:17:15.086Z,99172.94
2018-01-15T19:19:41.732Z,99171.70
2018-01-15T19:22:08.560Z,99178.50
2018-01-15T19:24:35.348Z,99175.32
2018-01-15T19:27:02.985Z,99202.11
2018-01-15T19:29:29.919Z,99215.59
2018-01-15T19:31:56.852Z,99210.38
2018-01-15T19:40:32.166Z,99206.44
2018-01-15T19:43:05.840Z,99206.67
2018-01-15T19:45:38.568Z,99208.85
2018-01-15T19:48:12.127Z,99210.30
2018-01-15T19:50:44.968Z,99216.70
2018-01-15T19:53:17.793Z,99212.19
2018-01-15T19:55:48.608Z,99205.53
2018-01-15T19:58:21.681Z,99216.87
2018-01-15T20:04:07.726Z,99205.06
2018-01-15T20:06:40.588Z,99220.63
2018-01-15T20:09:13.446Z,99223.57
2018-01-15T20:11:40.252Z,99228.14
2018-01-15T20:14:07.743Z,99230.47
2018-01-15T20:16:34.443Z,99238.24
2018-01-15T20:19:01.178Z,99236.87
2018-01-15T20:21:27.828Z,99234.06
2018-01-15T20:23:54.804Z,99243.33
2018-01-15T20:26:22.190Z,99243.48
2018-01-15T20:28:49.037Z,99250.22
2018-01-15T20:31:15.954Z,99254.45
2018-01-15T20:33:42.675Z,99261.16
2018-01-15T20:36:09.431Z,99264.29
2018-01-15T20:38:36.160Z,99277.92
2018-01-15T20:41:02.921Z,99274.12
2018-01-15T20:43:29.566Z,99275.12
2018-01-15T20:45:56.214Z,99278.92
2018-01-15T20:48:22.951Z,99282.39
2018-01-15T20:50:49.595Z,99280.48
2018-01-15T20:53:16.394Z,99267.14
2018-01-15T20:55:43.057Z,99277.64
2018-01-15T20:58:09.932Z,99282.20
2018-01-15T21:00:38.617Z,99279.02
2018-01-15T21:03:05.473Z,99270.52
2018-01-15T21:05:33.671Z,99276.02
2018-01-15T21:08:00.423Z,99278.27
2018-01-15T21:10:27.814Z,99262.77
2018-01-15T21:12:54.524Z,99272.27
2018-01-15T21:15:21.255Z,99276.34
2018-01-15T21:17:47.897Z,99281.86
2018-01-15T21:20:14.668Z,99283.33
2018-01-15T21:22:42.160Z,99267.33
2018-01-15T21:25:08.922Z,99272.66
2018-01-15T21:27:35.619Z,99293.09
2018-01-15T21:30:02.461Z,99296.08
2018-01-15T21:32:29.930Z,99290.57
2018-01-15T21:34:57.402Z,99293.14
2018-01-15T21:37:24.127Z,99299.37
2018-01-15T21:39:57.825Z,99308.37
2018-01-15T21:42:24.620Z,99309.47
2018-01-15T21:44:51.502Z,99309.20
2018-01-15T21:47:18.155Z,99313.00
2018-01-15T21:49:44.821Z,99319.55
2018-01-15T21:52:13.343Z,99310.06
2018-01-15T21:54:40.129Z,99308.34
2018-01-15T21:57:06.868Z,99302.64
2018-01-15T21:59:33.526Z,99305.40
2018-01-15T22:02:00.275Z,99298.98
2018-01-15T22:04:27.042Z,99310.68
2018-01-15T22:06:54.514Z,99311.49
2018-01-15T22:09:21.946Z,99317.96
2018-01-15T22:11:48.683Z,99328.12
2018-01-15T22:14:15.558Z,99331.59
2018-01-15T22:19:23.956Z,99336.20
2018-01-15T22:21:50.714Z,99340.19
2018-01-15T22:24:17.546Z,99340.19
2018-01-15T22:26:44.292Z,99350.31
2018-01-15T22:29:11.041Z,99362.80
2018-01-15T22:31:37.891Z,99365.55
2018-01-15T22:34:04.695Z,99356.91
2018-01-15T22:36:31.596Z,99357.24
2018-01-15T22:38:58.398Z,99360.42
2018-01-15T22:41:25.013Z,99364.71
2018-01-15T22:43:52.449Z,99364.08
2018-01-15T22:46:19.212Z,99373.78
2018-01-15T22:48:46.659Z,99385.36
2018-01-15T22:51:13.313Z,99381.20
2018-01-15T22:53:39.911Z,99377.71
2018-01-15T22:56:06.612Z,99391.26
2018-01-15T22:58:34.136Z,99391.71
2018-01-15T23:01:00.856Z,99396.84
2018-01-15T23:03:27.931Z,99395.88
2018-01-15T23:05:54.782Z,99395.64
2018-01-15T23:08:21.426Z,99403.80
2018-01-15T23:10:48.236Z,99406.00
2018-01-15T23:13:14.883Z,99404.91
2018-01-15T23:15:41.465Z,99407.68
2018-01-15T23:18:08.916Z,99413.45
2018-01-15T23:20:35.672Z,99409.22
2018-01-15T23:23:03.229Z,99404.31
2018-01-15T23:25:30.698Z,99406.00
2018-01-15T23:27:57.348Z,99416.78
2018-01-15T23:30:23.983Z,99420.64
2018-01-15T23:32:50.559Z,99414.83
2018-01-15T23:35:18.089Z,99417.00
2018-01-15T23:37:44.746Z,99421.25
2018-01-15T23:40:11.544Z,99443.04
2018-01-15T23:42:38.330Z,99428.61
2018-01-15T23:45:05.182Z,99423.34
2018-01-15T23:47:31.868Z,99430.86
2018-01-15T23:49:59.386Z,99420.70
2018-01-15T23:52:26.119Z,99416.27
2018-01-15T23:54:52.785Z,99407.08
2018-01-15T23:57:19.516Z,99403.57
2018-01-15T23:59:46.255Z,99416.39
